sensor_id;sensor_type;location;lat;lon;timestamp;pressure;altitude;pressure_sealevel;temperature;humidity
21300;BME280;10809;49.476;11.016;2023-11-19T00:00:13;98276.53;;;5.42;70.11
21300;BME280;10809;49.476;11.016;2023-11-19T00:02:44;98265.16;;;5.43;70.50
21300;BME280;10809;49.476;11.016;2023-11-19T00:05:15;98257.28;;;5.43;70.10
21300;BME280;10809;49.476;11.016;2023-11-19T00:07:45;98255.47;;;5.43;70.52
21300;BME280;10809;49.476;11.016;2023-11-19T00:10:16;98246.72;;;5.44;70.57
21300;BME280;10809;49.476;11.016;2023-11-19T00:12:49;98240.59;;;5.44;70.39
21300;BME280;10809;49.476;11.016;2023-11-19T00:15:20;98240.59;;;5.44;70.33
21300;BME280;10809;49.476;11.016;2023-11-19T00:17:53;98247.59;;;5.43;70.31
21300;BME280;10809;49.476;11.016;2023-11-19T00:20:23;98246.72;;;5.44;70.51
21300;BME280;10809;49.476;11.016;2023-11-19T00:22:54;98252.81;;;5.45;70.40
21300;BME280;10809;49.476;11.016;2023-11-19T00:25:24;98250.19;;;5.45;70.61
21300;BME280;10809;49.476;11.016;2023-11-19T00:27:58;98249.28;;;5.46;70.35
21300;BME280;10809;49.476;11.016;2023-11-19T00:30:29;98243.22;;;5.44;70.51
21300;BME280;10809;49.476;11.016;2023-11-19T00:33:01;98235.28;;;5.45;70.80
21300;BME280;10809;49.476;11.016;2023-11-19T00:35:31;98229.16;;;5.45;70.62
21300;BME280;10809;49.476;11.016;2023-11-19T00:38:03;98222.09;;;5.47;70.51
21300;BME280;10809;49.476;11.016;2023-11-19T00:40:43;98227.31;;;5.48;70.99
21300;BME280;10809;49.476;11.016;2023-11-19T00:43:14;98214.13;;;5.50;70.62
21300;BME280;10809;49.476;11.016;2023-11-19T00:45:44;98206.19;;;5.51;70.69
21300;BME280;10809;49.476;11.016;2023-11-19T00:48:15;98194.69;;;5.54;70.59
21300;BME280;10809;49.476;11.016;2023-11-19T00:50:45;98197.25;;;5.55;70.99
21300;BME280;10809;49.476;11.016;2023-11-19T00:53:16;98194.59;;;5.57;70.62
21300;BME280;10809;49.476;11.016;2023-11-19T00:55:46;98191.06;;;5.58;70.99
21300;BME280;10809;49.476;11.016;2023-11-19T00:58:17;98181.41;;;5.58;71.00
21300;BME280;10809;49.476;11.016;2023-11-19T01:00:48;98177.81;;;5.61;70.82
21300;BME280;10809;49.476;11.016;2023-11-19T01:03:18;98182.19;;;5.60;70.56
21300;BME280;10809;49.476;11.016;2023-11-19T01:05:51;98176.09;;;5.60;70.92
21300;BME280;10809;49.476;11.016;2023-11-19T01:08:22;98182.19;;;5.60;70.60
21300;BME280;10809;49.476;11.016;2023-11-19T01:10:58;98192.75;;;5.59;70.59
21300;BME280;10809;49.476;11.016;2023-11-19T01:13:30;98187.50;;;5.59;70.87
21300;BME280;10809;49.476;11.016;2023-11-19T01:16:00;98193.69;;;5.58;71.01
21300;BME280;10809;49.476;11.016;2023-11-19T01:18:32;98198.00;;;5.59;70.83
21300;BME280;10809;49.476;11.016;2023-11-19T01:21:04;98210.22;;;5.60;70.97
21300;BME280;10809;49.476;11.016;2023-11-19T01:23:35;98194.47;;;5.60;71.10
21300;BME280;10809;49.476;11.016;2023-11-19T01:26:05;98185.69;;;5.61;71.20
21300;BME280;10809;49.476;11.016;2023-11-19T01:28:36;98180.44;;;5.61;70.97
21300;BME280;10809;49.476;11.016;2023-11-19T01:31:07;98181.22;;;5.63;71.10
21300;BME280;10809;49.476;11.016;2023-11-19T01:33:39;98185.56;;;5.64;71.36
21300;BME280;10809;49.476;11.016;2023-11-19T01:36:13;98180.28;;;5.65;71.22
21300;BME280;10809;49.476;11.016;2023-11-19T01:38:43;98177.59;;;5.67;71.35
21300;BME280;10809;49.476;11.016;2023-11-19T01:41:14;98168.78;;;5.68;71.34
21300;BME280;10809;49.476;11.016;2023-11-19T01:43:45;98170.41;;;5.70;71.20
21300;BME280;10809;49.476;11.016;2023-11-19T01:46:23;98162.44;;;5.73;71.30
21300;BME280;10809;49.476;11.016;2023-11-19T01:48:54;98157.97;;;5.75;71.74
21300;BME280;10809;49.476;11.016;2023-11-19T01:51:25;98131.66;;;5.77;71.52
21300;BME280;10809;49.476;11.016;2023-11-19T01:53:57;98123.78;;;5.77;71.52
21300;BME280;10809;49.476;11.016;2023-11-19T01:56:28;98109.75;;;5.78;71.07
21300;BME280;10809;49.476;11.016;2023-11-19T01:59:01;98096.53;;;5.79;71.45
21300;BME280;10809;49.476;11.016;2023-11-19T02:01:32;98107.00;;;5.81;71.51
21300;BME280;10809;49.476;11.016;2023-11-19T02:04:06;98104.38;;;5.81;71.56
21300;BME280;10809;49.476;11.016;2023-11-19T02:06:48;98107.75;;;5.83;71.74
21300;BME280;10809;49.476;11.016;2023-11-19T02:09:22;98106.06;;;5.82;71.48
21300;BME280;10809;49.476;11.016;2023-11-19T02:11:59;98099.94;;;5.81;71.50
21300;BME280;10809;49.476;11.016;2023-11-19T02:14:31;98104.31;;;5.82;71.42
21300;BME280;10809;49.476;11.016;2023-11-19T02:17:02;98108.69;;;5.82;71.33
21300;BME280;10809;49.476;11.016;2023-11-19T02:19:36;98115.66;;;5.83;71.57
21300;BME280;10809;49.476;11.016;2023-11-19T02:22:06;98111.19;;;5.85;71.84
21300;BME280;10809;49.476;11.016;2023-11-19T02:24:37;98119.06;;;5.85;71.39
21300;BME280;10809;49.476;11.016;2023-11-19T02:27:56;98109.44;;;5.85;71.64
21300;BME280;10809;49.476;11.016;2023-11-19T02:30:27;98105.81;;;5.88;71.45
21300;BME280;10809;49.476;11.016;2023-11-19T02:32:59;98102.25;;;5.89;71.34
21300;BME280;10809;49.476;11.016;2023-11-19T02:35:32;98107.50;;;5.89;71.40
21300;BME280;10809;49.476;11.016;2023-11-19T02:38:09;98101.38;;;5.90;71.32
21300;BME280;10809;49.476;11.016;2023-11-19T02:40:41;98102.19;;;5.90;71.56
21300;BME280;10809;49.476;11.016;2023-11-19T02:43:11;98103.06;;;5.91;71.59
21300;BME280;10809;49.476;11.016;2023-11-19T02:45:42;98107.38;;;5.92;71.33
21300;BME280;10809;49.476;11.016;2023-11-19T02:48:15;98103.00;;;5.92;71.75
21300;BME280;10809;49.476;11.016;2023-11-19T02:50:46;98101.19;;;5.94;71.81
21300;BME280;10809;49.476;11.016;2023-11-19T02:53:18;98101.94;;;5.96;71.66
21300;BME280;10809;49.476;11.016;2023-11-19T02:55:52;98092.31;;;5.97;71.75
21300;BME280;10809;49.476;11.016;2023-11-19T02:58:22;98089.63;;;5.98;71.12
21300;BME280;10809;49.476;11.016;2023-11-19T03:00:58;98085.22;;;5.99;71.75
21300;BME280;10809;49.476;11.016;2023-11-19T03:03:29;98073.84;;;5.98;71.60
21300;BME280;10809;49.476;11.016;2023-11-19T03:06:12;98080.75;;;6.01;71.60
21300;BME280;10809;49.476;11.016;2023-11-19T03:08:42;98077.22;;;6.02;71.69
21300;BME280;10809;49.476;11.016;2023-11-19T03:11:12;98080.69;;;6.02;71.78
21300;BME280;10809;49.476;11.016;2023-11-19T03:13:44;98080.69;;;6.02;71.87
21300;BME280;10809;49.476;11.016;2023-11-19T03:16:14;98072.78;;;6.02;71.68
21300;BME280;10809;49.476;11.016;2023-11-19T03:18:44;98068.41;;;6.03;71.54
21300;BME280;10809;49.476;11.016;2023-11-19T03:21:15;98059.59;;;6.04;71.69
21300;BME280;10809;49.476;11.016;2023-11-19T03:23:45;98052.56;;;6.04;72.04
21300;BME280;10809;49.476;11.016;2023-11-19T03:26:16;98056.91;;;6.05;71.79
21300;BME280;10809;49.476;11.016;2023-11-19T03:28:46;98058.63;;;6.07;71.60
21300;BME280;10809;49.476;11.016;2023-11-19T03:31:16;98060.38;;;6.06;71.88
21300;BME280;10809;49.476;11.016;2023-11-19T03:33:47;98048.94;;;6.07;71.82
21300;BME280;10809;49.476;11.016;2023-11-19T03:36:17;98029.66;;;6.08;71.99
21300;BME280;10809;49.476;11.016;2023-11-19T03:38:47;98017.34;;;6.08;72.01
21300;BME280;10809;49.476;11.016;2023-11-19T03:41:18;98003.31;;;6.10;71.72
21300;BME280;10809;49.476;11.016;2023-11-19T03:43:49;97979.59;;;6.11;71.95
21300;BME280;10809;49.476;11.016;2023-11-19T03:46:20;97959.47;;;6.10;71.87
21300;BME280;10809;49.476;11.016;2023-11-19T03:48:50;97925.31;;;6.10;71.98
21300;BME280;10809;49.476;11.016;2023-11-19T03:51:21;97920.09;;;6.08;71.95
21300;BME280;10809;49.476;11.016;2023-11-19T03:53:52;97919.28;;;6.08;71.73
21300;BME280;10809;49.476;11.016;2023-11-19T03:56:22;97923.81;;;6.04;71.64
21300;BME280;10809;49.476;11.016;2023-11-19T03:58:52;97935.19;;;6.05;72.18
21300;BME280;10809;49.476;11.016;2023-11-19T04:01:23;97943.97;;;6.04;72.13
21300;BME280;10809;49.476;11.016;2023-11-19T04:03:53;97945.69;;;6.05;72.00
21300;BME280;10809;49.476;11.016;2023-11-19T04:06:23;97958.03;;;6.03;72.24
21300;BME280;10809;49.476;11.016;2023-11-19T04:08:54;97950.94;;;6.05;72.32
21300;BME280;10809;49.476;11.016;2023-11-19T04:11:24;97949.16;;;6.05;72.07
21300;BME280;10809;49.476;11.016;2023-11-19T04:13:54;97968.41;;;6.06;72.36
21300;BME280;10809;49.476;11.016;2023-11-19T04:16:26;97972.81;;;6.05;72.15
21300;BME280;10809;49.476;11.016;2023-11-19T04:18:58;97974.47;;;6.08;72.42
21300;BME280;10809;49.476;11.016;2023-11-19T04:21:29;97976.16;;;6.09;72.35
21300;BME280;10809;49.476;11.016;2023-11-19T04:24:00;97973.47;;;6.11;72.15
21300;BME280;10809;49.476;11.016;2023-11-19T04:26:30;97982.22;;;6.11;72.38
21300;BME280;10809;49.476;11.016;2023-11-19T04:29:02;97990.03;;;6.13;72.33
21300;BME280;10809;49.476;11.016;2023-11-19T04:31:35;97981.22;;;6.14;72.45
21300;BME280;10809;49.476;11.016;2023-11-19T04:34:07;97977.66;;;6.15;72.48
21300;BME280;10809;49.476;11.016;2023-11-19T04:36:41;97982.03;;;6.16;72.44
21300;BME280;10809;49.476;11.016;2023-11-19T04:39:11;97975.84;;;6.17;72.50
21300;BME280;10809;49.476;11.016;2023-11-19T04:41:46;97988.03;;;6.18;72.41
21300;BME280;10809;49.476;11.016;2023-11-19T04:44:18;97983.59;;;6.20;72.34
21300;BME280;10809;49.476;11.016;2023-11-19T04:46:49;97985.22;;;6.22;72.45
21300;BME280;10809;49.476;11.016;2023-11-19T04:49:19;97977.25;;;6.24;72.64
21300;BME280;10809;49.476;11.016;2023-11-19T04:51:50;97978.06;;;6.26;72.96
21300;BME280;10809;49.476;11.016;2023-11-19T04:54:21;97970.97;;;6.28;72.88
21300;BME280;10809;49.476;11.016;2023-11-19T04:56:51;97969.16;;;6.30;72.80
21300;BME280;10809;49.476;11.016;2023-11-19T04:59:22;97976.09;;;6.31;72.69
21300;BME280;10809;49.476;11.016;2023-11-19T05:01:55;97973.34;;;6.34;72.55
21300;BME280;10809;49.476;11.016;2023-11-19T05:04:26;97975.03;;;6.35;72.80
21300;BME280;10809;49.476;11.016;2023-11-19T05:06:56;97981.09;;;6.37;72.73
21300;BME280;10809;49.476;11.016;2023-11-19T05:09:26;97974.06;;;6.37;73.11
21300;BME280;10809;49.476;11.016;2023-11-19T05:11:57;97967.81;;;6.40;72.77
21300;BME280;10809;49.476;11.016;2023-11-19T05:14:27;97973.84;;;6.42;72.88
21300;BME280;10809;49.476;11.016;2023-11-19T05:16:58;97964.09;;;6.44;72.96
21300;BME280;10809;49.476;11.016;2023-11-19T05:19:28;97961.41;;;6.45;73.04
21300;BME280;10809;49.476;11.016;2023-11-19T05:21:58;97965.69;;;6.48;73.01
21300;BME280;10809;49.476;11.016;2023-11-19T05:24:37;97958.56;;;6.50;72.98
21300;BME280;10809;49.476;11.016;2023-11-19T05:27:07;97957.66;;;6.51;73.04
21300;BME280;10809;49.476;11.016;2023-11-19T05:29:44;97959.28;;;6.53;72.96
21300;BME280;10809;49.476;11.016;2023-11-19T05:32:14;97946.06;;;6.55;73.00
21300;BME280;10809;49.476;11.016;2023-11-19T05:34:44;97958.22;;;6.57;72.86
21300;BME280;10809;49.476;11.016;2023-11-19T05:37:15;97942.44;;;6.57;73.02
21300;BME280;10809;49.476;11.016;2023-11-19T05:39:45;97930.94;;;6.60;73.16
21300;BME280;10809;49.476;11.016;2023-11-19T05:42:16;97930.88;;;6.61;73.04
21300;BME280;10809;49.476;11.016;2023-11-19T05:44:46;97934.28;;;6.63;73.14
21300;BME280;10809;49.476;11.016;2023-11-19T05:47:16;97932.50;;;6.64;73.43
21300;BME280;10809;49.476;11.016;2023-11-19T05:49:47;97927.97;;;6.67;73.15
21300;BME280;10809;49.476;11.016;2023-11-19T05:52:17;97924.47;;;6.67;73.32
21300;BME280;10809;49.476;11.016;2023-11-19T05:54:47;97928.72;;;6.69;73.13
21300;BME280;10809;49.476;11.016;2023-11-19T05:57:21;97922.56;;;6.70;73.39
21300;BME280;10809;49.476;11.016;2023-11-19T05:59:55;97923.31;;;6.72;73.16
21300;BME280;10809;49.476;11.016;2023-11-19T06:02:26;97926.75;;;6.74;73.35
21300;BME280;10809;49.476;11.016;2023-11-19T06:04:58;97929.31;;;6.76;73.53
21300;BME280;10809;49.476;11.016;2023-11-19T06:07:34;97927.47;;;6.78;73.33
21300;BME280;10809;49.476;11.016;2023-11-19T06:10:06;97928.34;;;6.78;73.21
21300;BME280;10809;49.476;11.016;2023-11-19T06:12:42;97940.47;;;6.81;73.29
21300;BME280;10809;49.476;11.016;2023-11-19T06:15:13;97938.63;;;6.83;73.31
21300;BME280;10809;49.476;11.016;2023-11-19T06:17:46;97935.06;;;6.84;73.45
21300;BME280;10809;49.476;11.016;2023-11-19T06:20:17;97935.00;;;6.85;73.47
21300;BME280;10809;49.476;11.016;2023-11-19T06:22:49;97938.44;;;6.87;73.61
21300;BME280;10809;49.476;11.016;2023-11-19T06:25:23;97935.72;;;6.89;73.39
21300;BME280;10809;49.476;11.016;2023-11-19T06:27:56;97933.03;;;6.90;73.16
21300;BME280;10809;49.476;11.016;2023-11-19T06:30:27;97938.13;;;6.93;73.83
21300;BME280;10809;49.476;11.016;2023-11-19T06:33:02;97935.50;;;6.93;73.57
21300;BME280;10809;49.476;11.016;2023-11-19T06:35:34;97935.44;;;6.95;73.68
21300;BME280;10809;49.476;11.016;2023-11-19T06:38:06;97927.47;;;6.96;73.55
21300;BME280;10809;49.476;11.016;2023-11-19T06:40:36;97930.84;;;6.98;73.79
21300;BME280;10809;49.476;11.016;2023-11-19T06:43:07;97926.38;;;7.00;73.66
21300;BME280;10809;49.476;11.016;2023-11-19T06:45:39;97932.44;;;7.02;73.32
21300;BME280;10809;49.476;11.016;2023-11-19T06:48:09;97926.25;;;7.03;73.66
21300;BME280;10809;49.476;11.016;2023-11-19T06:50:39;97928.78;;;7.05;73.73
21300;BME280;10809;49.476;11.016;2023-11-19T06:53:13;97926.09;;;7.06;73.47
21300;BME280;10809;49.476;11.016;2023-11-19T06:55:43;97930.44;;;7.07;73.71
21300;BME280;10809;49.476;11.016;2023-11-19T06:58:13;97925.97;;;7.09;73.86
21300;BME280;10809;49.476;11.016;2023-11-19T07:00:44;97929.41;;;7.11;73.89
21300;BME280;10809;49.476;11.016;2023-11-19T07:03:16;97931.09;;;7.12;73.99
21300;BME280;10809;49.476;11.016;2023-11-19T07:05:46;97931.88;;;7.14;74.01
21300;BME280;10809;49.476;11.016;2023-11-19T07:08:16;97929.19;;;7.16;73.72
21300;BME280;10809;49.476;11.016;2023-11-19T07:10:47;97930.78;;;7.18;74.00
21300;BME280;10809;49.476;11.016;2023-11-19T07:13:17;97928.09;;;7.20;74.22
21300;BME280;10809;49.476;11.016;2023-11-19T07:15:51;97921.81;;;7.22;73.96
21300;BME280;10809;49.476;11.016;2023-11-19T07:18:21;97928.66;;;7.26;74.33
21300;BME280;10809;49.476;11.016;2023-11-19T07:20:54;97925.94;;;7.28;74.64
21300;BME280;10809;49.476;11.016;2023-11-19T07:23:25;97920.47;;;7.32;74.33
21300;BME280;10809;49.476;11.016;2023-11-19T07:25:56;97929.91;;;7.36;74.38
21300;BME280;10809;49.476;11.016;2023-11-19T07:28:26;97939.47;;;7.39;74.47
21300;BME280;10809;49.476;11.016;2023-11-19T07:30:58;97940.06;;;7.44;74.71
21300;BME280;10809;49.476;11.016;2023-11-19T07:33:29;97942.47;;;7.48;74.67
21300;BME280;10809;49.476;11.016;2023-11-19T07:36:06;97944.06;;;7.52;74.62
21300;BME280;10809;49.476;11.016;2023-11-19T07:38:37;97946.47;;;7.57;74.77
21300;BME280;10809;49.476;11.016;2023-11-19T07:41:08;97943.53;;;7.63;75.09
21300;BME280;10809;49.476;11.016;2023-11-19T07:43:47;97954.66;;;7.68;75.24
21300;BME280;10809;49.476;11.016;2023-11-19T07:46:18;97937.72;;;7.73;75.06
21300;BME280;10809;49.476;11.016;2023-11-19T07:48:52;97943.63;;;7.78;75.23
21300;BME280;10809;49.476;11.016;2023-11-19T07:51:22;97948.66;;;7.83;75.28
21300;BME280;10809;49.476;11.016;2023-11-19T07:53:52;97943.97;;;7.88;75.43
21300;BME280;10809;49.476;11.016;2023-11-19T07:56:23;97948.19;;;7.92;75.68
21300;BME280;10809;49.476;11.016;2023-11-19T07:58:53;97956.63;;;7.99;75.20
21300;BME280;10809;49.476;11.016;2023-11-19T08:01:23;97946.78;;;8.02;75.65
21300;BME280;10809;49.476;11.016;2023-11-19T08:03:54;97943.91;;;8.07;75.48
21300;BME280;10809;49.476;11.016;2023-11-19T08:06:24;97947.16;;;8.12;75.28
21300;BME280;10809;49.476;11.016;2023-11-19T08:08:54;97950.47;;;8.15;75.49
21300;BME280;10809;49.476;11.016;2023-11-19T08:11:25;97953.75;;;8.20;75.44
21300;BME280;10809;49.476;11.016;2023-11-19T08:13:55;97949.09;;;8.25;75.24
21300;BME280;10809;49.476;11.016;2023-11-19T08:16:25;97945.34;;;8.29;75.44
21300;BME280;10809;49.476;11.016;2023-11-19T08:18:56;97934.63;;;8.32;75.60
21300;BME280;10809;49.476;11.016;2023-11-19T08:21:31;97945.81;;;8.37;75.37
21300;BME280;10809;49.476;11.016;2023-11-19T08:24:05;97935.00;;;8.42;75.72
21300;BME280;10809;49.476;11.016;2023-11-19T08:26:35;97921.66;;;8.45;75.79
21300;BME280;10809;49.476;11.016;2023-11-19T08:29:06;97924.13;;;8.48;75.78
21300;BME280;10809;49.476;11.016;2023-11-19T08:31:36;97933.56;;;8.52;75.80
21300;BME280;10809;49.476;11.016;2023-11-19T08:34:06;97928.13;;;8.55;76.20
21300;BME280;10809;49.476;11.016;2023-11-19T08:36:39;97937.63;;;8.59;76.00
21300;BME280;10809;49.476;11.016;2023-11-19T08:39:09;97932.13;;;8.63;75.93
21300;BME280;10809;49.476;11.016;2023-11-19T08:41:39;97938.06;;;8.67;76.15
21300;BME280;10809;49.476;11.016;2023-11-19T08:44:11;97936.91;;;8.72;76.05
21300;BME280;10809;49.476;11.016;2023-11-19T08:46:49;97936.66;;;8.77;75.97
21300;BME280;10809;49.476;11.016;2023-11-19T08:49:19;97945.19;;;8.82;76.29
21300;BME280;10809;49.476;11.016;2023-11-19T08:51:49;97930.88;;;8.86;76.25
21300;BME280;10809;49.476;11.016;2023-11-19T08:54:23;97930.53;;;8.92;76.34
21300;BME280;10809;49.476;11.016;2023-11-19T08:56:53;97921.50;;;8.96;76.51
21300;BME280;10809;49.476;11.016;2023-11-19T08:59:23;97928.25;;;9.01;76.65
21300;BME280;10809;49.476;11.016;2023-11-19T09:01:54;97935.84;;;9.07;76.89
21300;BME280;10809;49.476;11.016;2023-11-19T09:04:24;97922.28;;;9.13;77.01
21300;BME280;10809;49.476;11.016;2023-11-19T09:06:54;97920.03;;;9.21;77.06
21300;BME280;10809;49.476;11.016;2023-11-19T09:09:25;97915.09;;;9.31;77.56
21300;BME280;10809;49.476;11.016;2023-11-19T09:11:56;97919.03;;;9.39;77.59
21300;BME280;10809;49.476;11.016;2023-11-19T09:14:26;97924.44;;;9.52;78.30
21300;BME280;10809;49.476;11.016;2023-11-19T09:16:57;97939.69;;;9.63;77.95
21300;BME280;10809;49.476;11.016;2023-11-19T09:19:28;97944.25;;;9.75;78.33
21300;BME280;10809;49.476;11.016;2023-11-19T09:21:58;97951.50;;;9.87;78.23
21300;BME280;10809;49.476;11.016;2023-11-19T09:24:28;97935.69;;;10.01;78.55
21300;BME280;10809;49.476;11.016;2023-11-19T09:26:59;97934.03;;;10.14;78.33
21300;BME280;10809;49.476;11.016;2023-11-19T09:29:33;97941.13;;;10.27;78.64
21300;BME280;10809;49.476;11.016;2023-11-19T09:32:04;97958.06;;;10.39;78.38
21300;BME280;10809;49.476;11.016;2023-11-19T09:34:40;97964.44;;;10.50;78.09
21300;BME280;10809;49.476;11.016;2023-11-19T09:37:11;97946.25;;;10.58;77.61
21300;BME280;10809;49.476;11.016;2023-11-19T09:39:41;97961.75;;;10.64;77.01
21300;BME280;10809;49.476;11.016;2023-11-19T09:42:14;97960.66;;;10.68;77.07
21300;BME280;10809;49.476;11.016;2023-11-19T09:44:47;97966.59;;;10.72;76.64
21300;BME280;10809;49.476;11.016;2023-11-19T09:47:19;97961.19;;;10.73;76.42
21300;BME280;10809;49.476;11.016;2023-11-19T09:49:49;97960.28;;;10.74;76.23
21300;BME280;10809;49.476;11.016;2023-11-19T09:52:20;97957.72;;;10.73;75.93
21300;BME280;10809;49.476;11.016;2023-11-19T09:54:50;97960.47;;;10.71;75.87
21300;BME280;10809;49.476;11.016;2023-11-19T09:57:25;97956.97;;;10.71;75.83
21300;BME280;10809;49.476;11.016;2023-11-19T09:59:55;97956.97;;;10.71;75.93
21300;BME280;10809;49.476;11.016;2023-11-19T10:02:28;97950.78;;;10.70;76.00
21300;BME280;10809;49.476;11.016;2023-11-19T10:05:04;97954.31;;;10.71;76.12
21300;BME280;10809;49.476;11.016;2023-11-19T10:07:36;97951.56;;;10.72;76.24
21300;BME280;10809;49.476;11.016;2023-11-19T10:10:06;97941.75;;;10.74;76.17
21300;BME280;10809;49.476;11.016;2023-11-19T10:12:38;97934.63;;;10.75;76.16
21300;BME280;10809;49.476;11.016;2023-11-19T10:15:17;97940.69;;;10.77;76.04
21300;BME280;10809;49.476;11.016;2023-11-19T10:17:56;97935.28;;;10.78;76.03
21300;BME280;10809;49.476;11.016;2023-11-19T10:20:27;97940.50;;;10.80;76.02
21300;BME280;10809;49.476;11.016;2023-11-19T10:22:57;97928.94;;;10.81;76.05
21300;BME280;10809;49.476;11.016;2023-11-19T10:25:29;97938.63;;;10.82;75.77
21300;BME280;10809;49.476;11.016;2023-11-19T10:27:59;97931.50;;;10.82;75.98
21300;BME280;10809;49.476;11.016;2023-11-19T10:30:33;97926.19;;;10.82;75.80
21300;BME280;10809;49.476;11.016;2023-11-19T10:33:09;97928.84;;;10.82;75.43
21300;BME280;10809;49.476;11.016;2023-11-19T10:35:54;97932.47;;;10.81;75.42
21300;BME280;10809;49.476;11.016;2023-11-19T10:38:26;97923.66;;;10.81;75.41
21300;BME280;10809;49.476;11.016;2023-11-19T10:41:00;97929.03;;;10.79;75.50
21300;BME280;10809;49.476;11.016;2023-11-19T10:43:44;97933.50;;;10.79;75.40
21300;BME280;10809;49.476;11.016;2023-11-19T10:46:17;97925.56;;;10.79;75.58
21300;BME280;10809;49.476;11.016;2023-11-19T10:48:51;97933.59;;;10.77;75.80
21300;BME280;10809;49.476;11.016;2023-11-19T10:51:21;97930.00;;;10.78;75.91
21300;BME280;10809;49.476;11.016;2023-11-19T10:53:56;97925.47;;;10.80;76.39
21300;BME280;10809;49.476;11.016;2023-11-19T10:56:32;97923.34;;;10.85;76.81
21300;BME280;10809;49.476;11.016;2023-11-19T10:59:04;97919.59;;;10.89;76.53
21300;BME280;10809;49.476;11.016;2023-11-19T11:01:56;97923.44;;;10.98;76.91
21300;BME280;10809;49.476;11.016;2023-11-19T11:04:28;97922.13;;;11.05;77.48
21300;BME280;10809;49.476;11.016;2023-11-19T11:07:01;97919.72;;;11.14;77.77
21300;BME280;10809;49.476;11.016;2023-11-19T11:09:36;97910.19;;;11.26;77.83
21300;BME280;10809;49.476;11.016;2023-11-19T11:12:06;97913.81;;;11.38;77.56
21300;BME280;10809;49.476;11.016;2023-11-19T11:14:39;97912.28;;;11.48;77.31
21300;BME280;10809;49.476;11.016;2023-11-19T11:17:12;97898.44;;;11.57;76.94
21300;BME280;10809;49.476;11.016;2023-11-19T11:19:47;97905.13;;;11.62;76.52
21300;BME280;10809;49.476;11.016;2023-11-19T11:22:18;97896.88;;;11.67;76.22
21300;BME280;10809;49.476;11.016;2023-11-19T11:25:04;97898.25;;;11.72;76.29
21300;BME280;10809;49.476;11.016;2023-11-19T11:27:49;97893.59;;;11.76;76.20
21300;BME280;10809;49.476;11.016;2023-11-19T11:30:43;97885.22;;;11.82;76.10
21300;BME280;10809;49.476;11.016;2023-11-19T11:33:23;97888.44;;;11.87;75.94
21300;BME280;10809;49.476;11.016;2023-11-19T11:36:13;97875.81;;;11.90;75.71
21300;BME280;10809;49.476;11.016;2023-11-19T11:38:49;97888.78;;;11.95;75.49
21300;BME280;10809;49.476;11.016;2023-11-19T11:41:21;97869.03;;;11.99;75.72
21300;BME280;10809;49.476;11.016;2023-11-19T11:43:53;97874.88;;;12.04;76.09
21300;BME280;10809;49.476;11.016;2023-11-19T11:49:07;97866.69;;;12.19;75.53
21300;BME280;10809;49.476;11.016;2023-11-19T11:57:09;97867.88;;;12.28;74.39
21300;BME280;10809;49.476;11.016;2023-11-19T11:59:47;97863.59;;;12.25;73.94
21300;BME280;10809;49.476;11.016;2023-11-19T12:02:20;97864.69;;;12.23;74.30
21300;BME280;10809;49.476;11.016;2023-11-19T12:04:52;97875.50;;;12.20;73.63
21300;BME280;10809;49.476;11.016;2023-11-19T12:07:24;97858.94;;;12.16;73.67
21300;BME280;10809;49.476;11.016;2023-11-19T12:10:08;97853.00;;;12.13;73.70
21300;BME280;10809;49.476;11.016;2023-11-19T12:12:39;97862.97;;;12.09;73.55
21300;BME280;10809;49.476;11.016;2023-11-19T12:15:10;97850.88;;;12.05;73.53
21300;BME280;10809;49.476;11.016;2023-11-19T12:17:50;97845.78;;;12.02;73.47
21300;BME280;10809;49.476;11.016;2023-11-19T12:20:23;97859.28;;;11.99;73.26
21300;BME280;10809;49.476;11.016;2023-11-19T12:22:53;97861.28;;;11.96;73.55
21300;BME280;10809;49.476;11.016;2023-11-19T12:25:24;97852.66;;;11.92;73.42
21300;BME280;10809;49.476;11.016;2023-11-19T12:27:54;97846.63;;;11.90;73.59
21300;BME280;10809;49.476;11.016;2023-11-19T12:30:25;97845.78;;;11.90;74.17
21300;BME280;10809;49.476;11.016;2023-11-19T12:32:56;97846.44;;;11.93;74.73
21300;BME280;10809;49.476;11.016;2023-11-19T12:35:26;97838.16;;;11.98;74.82
21300;BME280;10809;49.476;11.016;2023-11-19T12:37:56;97846.50;;;12.04;75.12
21300;BME280;10809;49.476;11.016;2023-11-19T12:40:27;97845.16;;;12.11;74.91
21300;BME280;10809;49.476;11.016;2023-11-19T12:42:59;97834.84;;;12.19;74.89
21300;BME280;10809;49.476;11.016;2023-11-19T12:45:42;97847.56;;;12.27;74.72
21300;BME280;10809;49.476;11.016;2023-11-19T12:48:12;97867.34;;;12.35;74.34
21300;BME280;10809;49.476;11.016;2023-11-19T12:50:50;97846.75;;;12.39;73.89
21300;BME280;10809;49.476;11.016;2023-11-19T12:53:22;97849.94;;;12.44;73.67
21300;BME280;10809;49.476;11.016;2023-11-19T12:55:54;97845.38;;;12.46;73.39
21300;BME280;10809;49.476;11.016;2023-11-19T12:58:29;97853.25;;;12.47;73.10
21300;BME280;10809;49.476;11.016;2023-11-19T13:01:01;97841.75;;;12.47;72.92
21300;BME280;10809;49.476;11.016;2023-11-19T13:03:36;97841.75;;;12.47;73.04
21300;BME280;10809;49.476;11.016;2023-11-19T13:06:08;97837.31;;;12.47;72.74
21300;BME280;10809;49.476;11.016;2023-11-19T13:08:46;97832.84;;;12.48;73.05
21300;BME280;10809;49.476;11.016;2023-11-19T13:11:32;97819.38;;;12.51;73.06
21300;BME280;10809;49.476;11.016;2023-11-19T13:14:04;97832.53;;;12.52;73.02
21300;BME280;10809;49.476;11.016;2023-11-19T13:16:36;97832.41;;;12.54;72.74
21300;BME280;10809;49.476;11.016;2023-11-19T13:19:07;97835.78;;;12.56;72.68
21300;BME280;10809;49.476;11.016;2023-11-19T13:21:39;97831.34;;;12.56;72.54
21300;BME280;10809;49.476;11.016;2023-11-19T13:24:10;97829.53;;;12.57;72.43
21300;BME280;10809;49.476;11.016;2023-11-19T13:26:40;97842.81;;;12.57;72.34
21300;BME280;10809;49.476;11.016;2023-11-19T13:29:14;97826.88;;;12.57;72.28
21300;BME280;10809;49.476;11.016;2023-11-19T13:31:44;97838.34;;;12.57;72.59